createdAt,value
2018-11-27T00:00:54.974Z,10.20
2018-11-27T00:03:26.611Z,10.20
2018-11-27T00:05:56.773Z,10.20
2018-11-27T00:08:26.035Z,10.20
2018-11-27T00:10:55.339Z,10.20
2018-11-27T00:13:24.568Z,10.20
2018-11-27T00:15:53.847Z,10.20
2018-11-27T00:18:23.071Z,10.20
2018-11-27T00:20:52.268Z,10.20
2018-11-27T00:23:21.596Z,10.20
2018-11-27T00:25:51.018Z,10.20
2018-11-27T00:28:20.318Z,10.20
2018-11-27T00:30:49.576Z,10.30
2018-11-27T00:33:18.880Z,10.30
2018-11-27T00:35:48.026Z,10.30
2018-11-27T00:38:17.286Z,10.20
2018-11-27T00:40:46.571Z,10.20
2018-11-27T00:43:15.899Z,10.30
2018-11-27T00:45:45.169Z,10.30
2018-11-27T00:48:14.475Z,10.30
2018-11-27T00:50:43.806Z,10.30
2018-11-27T00:53:13.090Z,10.30
2018-11-27T00:55:42.391Z,10.30
2018-11-27T00:58:11.705Z,10.30
2018-11-27T01:00:41.982Z,10.30
2018-11-27T01:03:11.241Z,10.30
2018-11-27T01:05:40.579Z,10.20
2018-11-27T01:08:10.036Z,10.30
2018-11-27T01:10:39.217Z,10.30
2018-11-27T01:13:08.723Z,10.30
2018-11-27T01:15:38.009Z,10.30
2018-11-27T01:18:07.432Z,10.30
2018-11-27T01:20:36.731Z,10.30
2018-11-27T01:23:06.673Z,10.20
2018-11-27T01:25:35.861Z,10.30
2018-11-27T01:28:05.180Z,10.30
2018-11-27T01:30:34.551Z,10.30
2018-11-27T01:33:03.841Z,10.30
2018-11-27T01:35:33.161Z,10.30
2018-11-27T01:38:02.511Z,10.20
2018-11-27T01:40:31.791Z,10.20
2018-11-27T01:43:01.125Z,10.20
2018-11-27T01:45:30.297Z,10.20
2018-11-27T01:47:59.535Z,10.20
2018-11-27T01:50:28.761Z,10.20
2018-11-27T01:52:57.991Z,10.30
2018-11-27T01:55:27.134Z,10.20
2018-11-27T01:57:56.407Z,10.30
2018-11-27T02:00:29.860Z,10.30
2018-11-27T02:03:00.230Z,10.20
2018-11-27T02:05:30.040Z,10.30
2018-11-27T02:07:59.295Z,10.30
2018-11-27T02:10:28.599Z,10.20
2018-11-27T02:13:01.100Z,10.20
2018-11-27T02:15:30.960Z,10.20
2018-11-27T02:18:00.296Z,10.20
2018-11-27T02:20:29.544Z,10.20
2018-11-27T02:22:58.798Z,10.20
2018-11-27T02:25:30.875Z,10.20
2018-11-27T02:28:00.013Z,10.20
2018-11-27T02:30:29.308Z,10.20
2018-11-27T02:32:58.607Z,10.20
2018-11-27T02:35:27.836Z,10.20
2018-11-27T02:37:58.173Z,10.20
2018-11-27T02:40:27.433Z,10.20
2018-11-27T02:42:56.701Z,10.20
2018-11-27T02:45:26.382Z,10.20
2018-11-27T02:47:55.770Z,10.20
2018-11-27T02:50:25.965Z,10.20
2018-11-27T02:52:55.307Z,10.20
2018-11-27T02:55:27.429Z,10.20
2018-11-27T02:57:56.767Z,10.30
2018-11-27T03:00:29.016Z,10.30
2018-11-27T03:02:58.316Z,10.30
2018-11-27T03:05:37.178Z,10.30
2018-11-27T03:08:06.925Z,10.20
2018-11-27T03:10:36.196Z,10.10
2018-11-27T03:13:05.738Z,10.10
2018-11-27T03:15:35.336Z,10.10
2018-11-27T03:18:04.441Z,10.10
2018-11-27T03:20:33.735Z,10.10
2018-11-27T03:23:02.974Z,10.10
2018-11-27T03:25:32.225Z,10.20
2018-11-27T03:28:01.419Z,10.20
2018-11-27T03:30:30.646Z,10.20
2018-11-27T03:32:59.866Z,10.10
2018-11-27T03:35:29.181Z,10.10
2018-11-27T03:37:58.265Z,10.10
2018-11-27T03:40:28.790Z,10.10
2018-11-27T03:42:58.894Z,10.10
2018-11-27T03:45:28.109Z,10.10
2018-11-27T03:47:57.310Z,10.10
2018-11-27T03:50:30.358Z,10.10
2018-11-27T03:52:59.597Z,10.10
2018-11-27T03:55:28.876Z,10.00
2018-11-27T03:57:58.083Z,10.10
2018-11-27T04:00:29.190Z,10.10
2018-11-27T04:03:17.414Z,10.10
2018-11-27T04:05:46.644Z,10.10
2018-11-27T04:08:15.897Z,10.10
2018-11-27T04:10:45.146Z,10.20
2018-11-27T04:13:14.366Z,10.10
2018-11-27T04:15:43.613Z,10.10
2018-11-27T04:18:12.870Z,10.20
2018-11-27T04:20:42.057Z,10.10
2018-11-27T04:23:11.740Z,10.10
2018-11-27T04:25:41.054Z,10.10
2018-11-27T04:28:10.302Z,10.10
2018-11-27T04:30:39.682Z,10.00
2018-11-27T04:33:09.911Z,10.00
2018-11-27T04:35:39.177Z,9.90
2018-11-27T04:38:09.014Z,9.90
2018-11-27T04:40:38.451Z,9.90
2018-11-27T04:43:07.734Z,9.90
2018-11-27T04:45:37.155Z,9.90
2018-11-27T04:48:06.544Z,9.90
2018-11-27T04:50:35.794Z,9.80
2018-11-27T04:53:05.028Z,9.90
2018-11-27T04:55:34.303Z,9.90
2018-11-27T04:58:03.723Z,10.00
2018-11-27T05:00:33.392Z,9.90
2018-11-27T05:03:02.585Z,9.90
2018-11-27T05:05:32.730Z,9.90
2018-11-27T05:08:01.933Z,9.90
2018-11-27T05:10:31.162Z,9.90
2018-11-27T05:13:00.472Z,9.90
2018-11-27T05:15:29.818Z,9.90
2018-11-27T05:17:59.519Z,9.90
2018-11-27T05:20:28.823Z,9.90
2018-11-27T05:22:58.044Z,9.90
2018-11-27T05:25:27.384Z,9.90
2018-11-27T05:27:59.418Z,9.90
2018-11-27T05:30:29.249Z,9.90
2018-11-27T05:32:58.494Z,9.90
2018-11-27T05:35:31.225Z,9.90
2018-11-27T05:38:01.805Z,9.90
2018-11-27T05:40:31.090Z,9.90
2018-11-27T05:43:05.688Z,10.00
2018-11-27T05:45:34.842Z,10.00
2018-11-27T05:48:04.213Z,10.00
2018-11-27T05:50:33.498Z,9.90
2018-11-27T05:53:02.797Z,9.90
2018-11-27T05:55:32.094Z,10.00
2018-11-27T05:58:02.287Z,9.90
2018-11-27T06:00:31.552Z,9.90
2018-11-27T06:03:01.824Z,10.00
2018-11-27T06:05:31.131Z,10.00
2018-11-27T06:08:00.368Z,10.00
2018-11-27T06:10:29.731Z,9.90
2018-11-27T06:12:59.003Z,9.90
2018-11-27T06:15:28.200Z,9.90
2018-11-27T06:18:04.585Z,9.90
2018-11-27T06:20:33.836Z,9.80
2018-11-27T06:23:03.148Z,9.80
2018-11-27T06:25:32.553Z,9.80
2018-11-27T06:28:06.166Z,9.80
2018-11-27T06:30:35.836Z,9.80
2018-11-27T06:33:05.304Z,9.70
2018-11-27T06:35:41.824Z,9.70
2018-11-27T06:38:12.086Z,9.70
2018-11-27T06:40:42.407Z,9.70
2018-11-27T06:43:14.887Z,9.70
2018-11-27T06:45:44.634Z,9.70
2018-11-27T06:48:14.250Z,9.70
2018-11-27T06:50:43.589Z,9.60
2018-11-27T06:53:13.244Z,9.60
2018-11-27T06:55:42.452Z,9.50
2018-11-27T06:58:11.838Z,9.50
2018-11-27T07:00:41.135Z,9.50
2018-11-27T07:03:12.697Z,9.50
2018-11-27T07:05:41.987Z,9.40
2018-11-27T07:08:11.260Z,9.40
2018-11-27T07:10:41.916Z,9.40
2018-11-27T07:13:21.727Z,9.40
2018-11-27T07:15:51.602Z,9.40
2018-11-27T07:18:21.790Z,9.40
2018-11-27T07:20:51.104Z,9.40
2018-11-27T07:23:20.344Z,9.40
2018-11-27T07:25:49.588Z,9.40
2018-11-27T07:28:18.898Z,9.40
2018-11-27T07:30:48.198Z,9.40
2018-11-27T07:33:17.486Z,9.40
2018-11-27T07:35:46.806Z,9.30
2018-11-27T07:38:16.094Z,9.40
2018-11-27T07:40:45.358Z,9.30
2018-11-27T07:43:14.799Z,9.30
2018-11-27T07:45:44.066Z,9.30
2018-11-27T07:48:13.378Z,9.40
2018-11-27T07:50:43.227Z,9.40
2018-11-27T07:53:12.421Z,9.40
2018-11-27T07:55:41.712Z,9.40
2018-11-27T07:58:10.983Z,9.30
2018-11-27T08:00:40.224Z,9.30
2018-11-27T08:03:09.534Z,9.30
2018-11-27T08:05:42.039Z,9.30
2018-11-27T08:08:13.008Z,9.30
2018-11-27T08:10:42.885Z,9.30
2018-11-27T08:13:12.703Z,9.40
2018-11-27T08:15:41.852Z,9.40
2018-11-27T08:18:11.727Z,9.40
2018-11-27T08:20:41.013Z,9.40
2018-11-27T08:23:11.328Z,9.40
2018-11-27T08:25:40.801Z,9.40
2018-11-27T08:28:13.685Z,9.50
2018-11-27T08:30:43.499Z,9.50
2018-11-27T08:33:12.965Z,9.50
2018-11-27T08:35:43.101Z,9.50
2018-11-27T08:38:12.281Z,9.50
2018-11-27T08:40:41.581Z,9.50
2018-11-27T08:43:11.831Z,9.50
2018-11-27T08:45:41.051Z,9.60
2018-11-27T08:48:10.331Z,9.50
2018-11-27T08:50:39.556Z,9.50
2018-11-27T08:53:08.832Z,9.60
2018-11-27T08:55:41.898Z,9.60
2018-11-27T08:58:21.127Z,9.50
2018-11-27T09:00:50.393Z,9.60
2018-11-27T09:03:19.586Z,9.60
2018-11-27T09:05:48.805Z,9.60
2018-11-27T09:08:18.041Z,9.70
2018-11-27T09:10:47.395Z,9.60
2018-11-27T09:13:16.936Z,9.60
2018-11-27T09:15:46.360Z,9.70
2018-11-27T09:18:25.995Z,9.70
2018-11-27T09:20:55.308Z,9.70
2018-11-27T09:23:25.521Z,9.80
2018-11-27T09:25:54.839Z,9.80
2018-11-27T09:28:24.085Z,9.80
2018-11-27T09:30:53.435Z,9.80
2018-11-27T09:33:22.747Z,9.80
2018-11-27T09:35:52.085Z,9.80
2018-11-27T09:38:21.479Z,9.90
2018-11-27T09:40:50.888Z,10.00
2018-11-27T09:43:20.223Z,9.90
2018-11-27T09:45:50.193Z,9.80
2018-11-27T09:48:19.466Z,9.80
2018-11-27T09:50:48.861Z,9.90
2018-11-27T09:53:18.088Z,9.80
2018-11-27T09:55:47.451Z,9.80
2018-11-27T09:58:16.691Z,9.80
2018-11-27T10:00:45.967Z,9.80
2018-11-27T10:03:16.088Z,9.80
2018-11-27T10:05:45.423Z,9.80
2018-11-27T10:08:14.787Z,9.70
2018-11-27T10:10:44.086Z,9.60
2018-11-27T10:13:13.382Z,9.60
2018-11-27T10:15:42.698Z,9.60
2018-11-27T10:18:11.988Z,9.60
2018-11-27T10:20:42.461Z,9.50
2018-11-27T10:23:15.382Z,9.50
2018-11-27T10:25:44.618Z,9.50
2018-11-27T10:28:13.983Z,9.50
2018-11-27T10:30:43.300Z,9.50
2018-11-27T10:33:13.010Z,9.60
2018-11-27T10:35:49.698Z,9.60
2018-11-27T10:38:19.120Z,9.60
2018-11-27T10:40:48.508Z,9.50
2018-11-27T10:43:19.966Z,9.50
2018-11-27T10:45:47.930Z,9.50
2018-11-27T10:48:17.262Z,9.50
2018-11-27T10:50:46.552Z,9.50
2018-11-27T10:53:15.806Z,9.50
2018-11-27T10:55:44.957Z,9.50
2018-11-27T10:58:14.199Z,9.40
2018-11-27T11:01:00.714Z,9.40
2018-11-27T11:03:38.869Z,9.40
2018-11-27T11:06:08.845Z,9.40
2018-11-27T11:08:38.067Z,9.40
2018-11-27T11:11:08.126Z,9.50
2018-11-27T11:13:37.373Z,9.50
2018-11-27T11:16:07.572Z,9.50
2018-11-27T11:18:36.754Z,9.50
2018-11-27T11:21:06.380Z,9.50
2018-11-27T11:23:35.656Z,9.50
2018-11-27T11:26:04.894Z,9.50
2018-11-27T11:28:34.157Z,9.50
2018-11-27T11:31:03.407Z,9.60
2018-11-27T11:33:32.697Z,9.50
2018-11-27T11:36:01.995Z,9.60
2018-11-27T11:38:31.271Z,9.60
2018-11-27T11:41:00.513Z,9.50
2018-11-27T11:43:29.784Z,9.50
2018-11-27T11:45:59.080Z,9.50
2018-11-27T11:48:28.443Z,9.60
2018-11-27T11:50:57.619Z,9.60
2018-11-27T11:53:26.949Z,9.60
2018-11-27T11:55:56.175Z,9.70
2018-11-27T11:58:25.422Z,9.70
2018-11-27T12:00:55.751Z,9.80
2018-11-27T12:03:25.071Z,9.80
2018-11-27T12:05:54.225Z,9.80
2018-11-27T12:08:23.581Z,9.90
2018-11-27T12:10:52.748Z,9.90
2018-11-27T12:13:22.081Z,10.00
2018-11-27T12:15:51.333Z,10.00
2018-11-27T12:18:20.613Z,10.10
2018-11-27T12:20:49.927Z,10.00
2018-11-27T12:23:19.100Z,10.10
2018-11-27T12:25:48.355Z,10.10
2018-11-27T12:28:17.572Z,10.10
2018-11-27T12:30:46.730Z,10.20
2018-11-27T12:33:15.978Z,10.30
2018-11-27T12:35:45.243Z,10.30
2018-11-27T12:38:14.457Z,10.30
2018-11-27T12:40:43.734Z,10.30
2018-11-27T12:43:12.970Z,10.30
2018-11-27T12:45:42.128Z,10.20
2018-11-27T12:48:11.384Z,10.30
2018-11-27T12:50:47.927Z,10.20
2018-11-27T12:53:18.151Z,10.20
2018-11-27T12:55:48.656Z,10.20
2018-11-27T12:58:18.026Z,10.20
2018-11-27T13:00:47.330Z,10.20
2018-11-27T13:03:16.733Z,10.20
2018-11-27T13:05:46.746Z,10.20
2018-11-27T13:08:17.436Z,10.20
2018-11-27T13:10:46.727Z,10.20
2018-11-27T13:13:16.082Z,10.10
2018-11-27T13:15:45.764Z,10.10
2018-11-27T13:18:15.103Z,10.10
2018-11-27T13:20:44.467Z,10.20
2018-11-27T13:23:13.731Z,10.30
2018-11-27T13:25:43.286Z,10.30
2018-11-27T13:28:13.885Z,10.20
2018-11-27T13:30:53.771Z,10.20
2018-11-27T13:33:46.312Z,10.20
2018-11-27T13:36:15.599Z,10.20
2018-11-27T13:38:44.931Z,10.30
2018-11-27T13:41:14.317Z,10.30
2018-11-27T13:43:44.478Z,10.30
2018-11-27T13:46:13.990Z,10.20
2018-11-27T13:48:43.375Z,10.20
2018-11-27T13:51:12.629Z,10.20
2018-11-27T13:53:41.846Z,10.20
2018-11-27T13:56:11.069Z,10.20
2018-11-27T13:58:40.356Z,10.20
2018-11-27T14:01:09.662Z,10.20
2018-11-27T14:03:39.905Z,10.20
2018-11-27T14:06:09.187Z,10.10
2018-11-27T14:08:38.521Z,10.10
2018-11-27T14:11:07.775Z,10.00
2018-11-27T14:13:37.067Z,10.00
2018-11-27T14:16:06.658Z,10.00
2018-11-27T14:18:35.924Z,9.90
2018-11-27T14:21:05.549Z,9.90
2018-11-27T14:23:35.017Z,9.90
2018-11-27T14:26:04.367Z,9.80
2018-11-27T14:28:33.620Z,9.80
2018-11-27T14:31:02.913Z,9.80
2018-11-27T14:33:32.271Z,9.80
2018-11-27T14:36:01.549Z,9.80
2018-11-27T14:38:31.046Z,9.80
2018-11-27T14:41:00.271Z,9.80
2018-11-27T14:43:29.568Z,9.70
2018-11-27T14:45:58.891Z,9.70
2018-11-27T14:48:28.130Z,9.70
2018-11-27T14:50:57.526Z,9.60
2018-11-27T14:53:26.741Z,9.60
2018-11-27T14:55:56.002Z,9.60
2018-11-27T14:58:25.288Z,9.60
2018-11-27T15:00:54.830Z,9.50
2018-11-27T15:03:24.124Z,9.50
2018-11-27T15:05:53.662Z,9.50
2018-11-27T15:08:22.945Z,9.50
2018-11-27T15:10:52.464Z,9.40
2018-11-27T15:13:21.732Z,9.40
2018-11-27T15:15:50.989Z,9.40
2018-11-27T15:18:20.342Z,9.30
2018-11-27T15:20:49.612Z,9.30
2018-11-27T15:23:18.837Z,9.30
2018-11-27T15:25:48.126Z,9.20
2018-11-27T15:28:17.385Z,9.20
2018-11-27T15:30:46.831Z,9.20
2018-11-27T15:33:18.710Z,9.20
2018-11-27T15:35:46.184Z,9.10
2018-11-27T15:38:15.575Z,9.10
2018-11-27T15:40:44.911Z,9.10
2018-11-27T15:43:14.168Z,9.10
2018-11-27T15:45:43.400Z,9.10
2018-11-27T15:48:12.790Z,9.10
2018-11-27T15:50:42.214Z,9.10
2018-11-27T15:53:12.398Z,9.10
2018-11-27T15:55:41.735Z,9.10
2018-11-27T15:58:12.201Z,9.10
2018-11-27T16:00:42.163Z,9.10
2018-11-27T16:03:11.829Z,9.10
2018-11-27T16:05:45.338Z,9.10
2018-11-27T16:08:15.181Z,9.00
2018-11-27T16:10:44.562Z,9.00
2018-11-27T16:13:13.978Z,9.00
2018-11-27T16:15:43.291Z,9.00
2018-11-27T16:18:12.535Z,9.00
2018-11-27T16:20:41.851Z,9.00
2018-11-27T16:23:11.208Z,9.00
2018-11-27T16:25:40.418Z,8.90
2018-11-27T16:28:09.762Z,8.90
2018-11-27T16:30:39.057Z,8.90
2018-11-27T16:33:08.419Z,8.90
2018-11-27T16:35:37.930Z,8.90
2018-11-27T16:38:07.550Z,8.90
2018-11-27T16:40:38.295Z,8.90
2018-11-27T16:43:08.013Z,8.90
2018-11-27T16:45:37.277Z,8.90
2018-11-27T16:48:06.649Z,8.80
2018-11-27T16:50:35.897Z,8.80
2018-11-27T16:53:05.263Z,8.80
2018-11-27T16:55:34.511Z,8.70
2018-11-27T16:58:03.715Z,8.80
2018-11-27T17:00:33.915Z,8.70
2018-11-27T17:03:04.243Z,8.70
2018-11-27T17:05:37.715Z,8.70
2018-11-27T17:08:07.057Z,8.80
2018-11-27T17:10:36.623Z,8.80
2018-11-27T17:13:07.837Z,8.70
2018-11-27T17:15:37.253Z,8.80
2018-11-27T17:18:06.997Z,8.80
2018-11-27T17:20:37.815Z,8.80
2018-11-27T17:23:11.850Z,8.80
2018-11-27T17:25:41.275Z,8.80
2018-11-27T17:28:25.937Z,8.80
2018-11-27T17:31:18.240Z,8.80
2018-11-27T17:34:10.338Z,8.80
2018-11-27T17:36:40.363Z,8.80
2018-11-27T17:39:13.238Z,8.80
2018-11-27T17:41:42.659Z,8.80
2018-11-27T17:44:14.129Z,8.80
2018-11-27T17:46:43.502Z,8.80
2018-11-27T17:49:12.806Z,8.80
2018-11-27T17:51:42.115Z,8.80
2018-11-27T17:54:11.448Z,8.80
2018-11-27T17:56:40.723Z,8.80
2018-11-27T17:59:10.202Z,8.80
2018-11-27T18:01:39.531Z,8.80
2018-11-27T18:04:08.985Z,8.80
2018-11-27T18:06:38.912Z,8.80
2018-11-27T18:09:09.500Z,8.80
2018-11-27T18:11:38.913Z,8.80
2018-11-27T18:14:08.260Z,8.80
2018-11-27T18:16:37.614Z,8.80
2018-11-27T18:19:07.219Z,8.80
2018-11-27T18:21:36.656Z,8.80
2018-11-27T18:24:06.366Z,8.80
2018-11-27T18:26:35.742Z,8.70
2018-11-27T18:29:05.018Z,8.70
2018-11-27T18:31:34.344Z,8.70
2018-11-27T18:34:03.843Z,8.70
2018-11-27T18:36:34.142Z,8.70
2018-11-27T18:39:04.311Z,8.70
2018-11-27T18:41:34.551Z,8.60
2018-11-27T18:44:04.004Z,8.60
2018-11-27T18:46:33.538Z,8.70
2018-11-27T18:49:02.880Z,8.60
2018-11-27T18:51:32.231Z,8.60
2018-11-27T18:54:01.726Z,8.60
2018-11-27T18:56:31.932Z,8.60
2018-11-27T18:59:01.429Z,8.60
2018-11-27T19:01:30.791Z,8.60
2018-11-27T19:04:00.413Z,8.60
2018-11-27T19:06:29.768Z,8.60
2018-11-27T19:08:59.158Z,8.60
2018-11-27T19:11:28.542Z,8.60
2018-11-27T19:13:57.940Z,8.60
2018-11-27T19:16:27.281Z,8.60
2018-11-27T19:18:56.630Z,8.70
2018-11-27T19:21:26.097Z,8.60
2018-11-27T19:23:55.426Z,8.60
2018-11-27T19:26:24.770Z,8.60
2018-11-27T19:28:54.213Z,8.60
2018-11-27T19:31:23.674Z,8.60
2018-11-27T19:33:53.268Z,8.60
2018-11-27T19:36:22.675Z,8.60
2018-11-27T19:38:52.127Z,8.60
2018-11-27T19:41:21.669Z,8.50
2018-11-27T19:43:51.119Z,8.60
2018-11-27T19:46:20.602Z,8.60
2018-11-27T19:48:53.443Z,8.60
2018-11-27T19:51:20.795Z,8.60
2018-11-27T19:53:50.085Z,8.60
2018-11-27T19:56:19.450Z,8.60
2018-11-27T19:58:48.867Z,8.60
2018-11-27T20:01:18.268Z,8.60
2018-11-27T20:03:47.741Z,8.70
2018-11-27T20:06:17.190Z,8.60
2018-11-27T20:08:46.670Z,8.60
2018-11-27T20:11:16.089Z,8.60
2018-11-27T20:13:45.445Z,8.50
2018-11-27T20:16:14.882Z,8.50
2018-11-27T20:18:44.362Z,8.50
2018-11-27T20:21:13.745Z,8.40
2018-11-27T20:23:43.104Z,8.40
2018-11-27T20:26:12.411Z,8.40
2018-11-27T20:28:41.915Z,8.40
2018-11-27T20:31:11.293Z,8.40
2018-11-27T20:33:40.713Z,8.40
2018-11-27T20:36:10.029Z,8.40
2018-11-27T20:38:43.109Z,8.30
2018-11-27T20:41:13.976Z,8.30
2018-11-27T20:43:55.367Z,8.40
2018-11-27T20:46:29.520Z,8.30
2018-11-27T20:48:59.745Z,8.30
2018-11-27T20:51:29.642Z,8.30
2018-11-27T20:53:59.130Z,8.30
2018-11-27T20:56:28.419Z,8.30
2018-11-27T20:58:57.738Z,8.30
2018-11-27T21:01:27.319Z,8.30
2018-11-27T21:03:56.646Z,8.20
2018-11-27T21:06:26.086Z,8.20
2018-11-27T21:08:55.510Z,8.20
2018-11-27T21:11:24.984Z,8.20
2018-11-27T21:13:54.319Z,8.20
2018-11-27T21:16:23.671Z,8.20
2018-11-27T21:18:53.012Z,8.20
2018-11-27T21:21:22.390Z,8.20
2018-11-27T21:23:51.684Z,8.10
2018-11-27T21:26:21.092Z,8.10
2018-11-27T21:28:50.412Z,8.10
2018-11-27T21:31:24.131Z,8.10
2018-11-27T21:33:50.758Z,8.10
2018-11-27T21:36:20.499Z,8.00
2018-11-27T21:38:49.815Z,8.00
2018-11-27T21:41:20.012Z,8.00
2018-11-27T21:43:49.388Z,8.00
2018-11-27T21:46:18.691Z,7.90
2018-11-27T21:48:48.834Z,7.90
2018-11-27T21:51:18.213Z,7.90
2018-11-27T21:53:47.630Z,7.90
2018-11-27T21:56:16.965Z,7.90
2018-11-27T21:58:46.187Z,7.80
2018-11-27T22:01:15.513Z,7.90
2018-11-27T22:03:44.799Z,7.80
2018-11-27T22:06:14.117Z,7.80
2018-11-27T22:08:49.209Z,7.80
2018-11-27T22:11:18.832Z,7.80
2018-11-27T22:13:48.289Z,7.80
2018-11-27T22:16:17.653Z,7.80
2018-11-27T22:18:46.952Z,7.80
2018-11-27T22:21:16.217Z,7.80
2018-11-27T22:23:47.914Z,7.70
2018-11-27T22:26:17.225Z,7.70
2018-11-27T22:28:46.692Z,7.70
2018-11-27T22:31:15.980Z,7.60
2018-11-27T22:33:45.283Z,7.70
2018-11-27T22:36:14.653Z,7.60
2018-11-27T22:38:44.182Z,7.60
2018-11-27T22:41:13.436Z,7.60
2018-11-27T22:43:42.760Z,7.60
2018-11-27T22:46:12.121Z,7.60
2018-11-27T22:48:41.610Z,7.60
2018-11-27T22:51:11.007Z,7.60
2018-11-27T22:53:40.444Z,7.50
2018-11-27T22:56:09.808Z,7.50
2018-11-27T22:58:39.161Z,7.60
2018-11-27T23:01:08.567Z,7.50
2018-11-27T23:54:36.566Z,7.30
2018-11-27T23:57:06.990Z,7.30
2018-11-27T23:59:45.929Z,7.30
